Castledawson, United Kingdom
Current Conditions -  °F | °C
As of 3:50 PM on Wednesday 28 Jan 2015 (Local Time) from EGAA Reporting Station
Moderate Snow Moderate Snow  
Wind Chill: 20°   Ceiling: 600
Heat Index: 32°   Visibility: 0.5mi
Dew Point: 32°   Wind: 18mph
Humidity: 100%   Direction: 260°W
Pressure: 29.44"   Gusts: NA
Location:  54.78°N, 6.56°W
Report Text: EGAA 281550Z 26016KT 0800 R25/1500 R07/1000 SN SCT003 BKN006 BKN010CB 00/00 Q0997 R25/5903//
Loading
Personal Weather Stations






























Interactive Weather Map New forecast layout! Learn more

10-Day Weather Forecast

Advertisements
Track Severe Weather on mobile